HETB/TCP METAR and TAF weather

Enter ICAO airport designator
Station Type Date Time Source
HETB METAR 2020/04/19 07:00 UTC NOAA

HETB 190700Z 35013KT CAVOK 20/16 Q1015 NOSIG


Station Type Date Time Source
HETB Decoded METAR 2020/04/19 07:00 UTC NOAA

Taba, Egypt (HETB) 29-35-57N 034-46-36E
Apr 19, 2020 - 03:00 AM EDT / 2020.04.19 0700 UTC
Wind: from the N (350 degrees) at 15 MPH (13 KT):0
Visibility: greater than 7 mile(s):0
Temperature: 68 F (20 C)
Dew Point: 60 F (16 C)
Relative Humidity: 77%
Pressure (altimeter): 29.97 in. Hg (1015 hPa)
ob: HETB 190700Z 35013KT CAVOK 20/16 Q1015 NOSIG
cycle: 7

Station Type Date Time Source
HETB TAF 2020/07/07 06:00 UTC NOAA

TAF HETB 070500Z 0706/0812 34010KT CAVOK

Example: see airport list